sensor_id;sensor_type;location;lat;lon;timestamp;P1;durP1;ratioP1;P2;durP2;ratioP2
70592;SDS011;58294;42.988;20.338;2023-07-20T00:00:49;14.23;;;8.23;;
70592;SDS011;58294;42.988;20.338;2023-07-20T00:03:18;14.73;;;8.60;;
70592;SDS011;58294;42.988;20.338;2023-07-20T00:05:48;11.95;;;7.95;;
70592;SDS011;58294;42.988;20.338;2023-07-20T00:08:15;15.25;;;8.95;;
70592;SDS011;58294;42.988;20.338;2023-07-20T00:10:42;11.52;;;8.30;;
70592;SDS011;58294;42.988;20.338;2023-07-20T00:13:08;14.05;;;8.55;;
70592;SDS011;58294;42.988;20.338;2023-07-20T00:15:34;13.25;;;8.15;;
70592;SDS011;58294;42.988;20.338;2023-07-20T00:18:01;11.23;;;8.45;;
70592;SDS011;58294;42.988;20.338;2023-07-20T00:20:27;17.92;;;9.35;;
70592;SDS011;58294;42.988;20.338;2023-07-20T00:22:52;11.93;;;9.18;;
70592;SDS011;58294;42.988;20.338;2023-07-20T00:25:19;16.63;;;9.30;;
70592;SDS011;58294;42.988;20.338;2023-07-20T00:27:45;12.13;;;7.85;;
70592;SDS011;58294;42.988;20.338;2023-07-20T00:30:11;14.48;;;8.57;;
70592;SDS011;58294;42.988;20.338;2023-07-20T00:32:37;19.65;;;9.00;;
70592;SDS011;58294;42.988;20.338;2023-07-20T00:35:04;13.80;;;9.52;;
70592;SDS011;58294;42.988;20.338;2023-07-20T00:37:30;13.50;;;8.10;;
70592;SDS011;58294;42.988;20.338;2023-07-20T00:39:56;11.15;;;7.75;;
70592;SDS011;58294;42.988;20.338;2023-07-20T00:42:22;12.38;;;8.63;;
70592;SDS011;58294;42.988;20.338;2023-07-20T00:44:48;15.02;;;7.53;;
70592;SDS011;58294;42.988;20.338;2023-07-20T00:47:14;14.38;;;8.85;;
70592;SDS011;58294;42.988;20.338;2023-07-20T00:49:40;15.20;;;8.63;;
70592;SDS011;58294;42.988;20.338;2023-07-20T00:52:06;14.30;;;9.25;;
70592;SDS011;58294;42.988;20.338;2023-07-20T00:54:33;14.02;;;8.27;;
70592;SDS011;58294;42.988;20.338;2023-07-20T00:57:00;14.70;;;8.68;;
70592;SDS011;58294;42.988;20.338;2023-07-20T00:59:26;12.32;;;7.97;;
70592;SDS011;58294;42.988;20.338;2023-07-20T01:01:52;11.15;;;8.98;;
70592;SDS011;58294;42.988;20.338;2023-07-20T01:04:18;10.63;;;8.00;;
70592;SDS011;58294;42.988;20.338;2023-07-20T01:06:52;12.50;;;7.90;;
70592;SDS011;58294;42.988;20.338;2023-07-20T01:14:34;9.75;;;7.53;;
70592;SDS011;58294;42.988;20.338;2023-07-20T01:17:00;12.88;;;8.15;;
70592;SDS011;58294;42.988;20.338;2023-07-20T01:19:26;12.75;;;8.52;;
70592;SDS011;58294;42.988;20.338;2023-07-20T01:22:03;9.80;;;7.72;;
70592;SDS011;58294;42.988;20.338;2023-07-20T01:33:14;17.60;;;9.10;;
70592;SDS011;58294;42.988;20.338;2023-07-20T01:35:42;12.25;;;8.93;;
70592;SDS011;58294;42.988;20.338;2023-07-20T01:38:11;11.80;;;8.52;;
70592;SDS011;58294;42.988;20.338;2023-07-20T01:40:39;12.73;;;8.70;;
70592;SDS011;58294;42.988;20.338;2023-07-20T01:43:05;14.63;;;8.23;;
70592;SDS011;58294;42.988;20.338;2023-07-20T01:45:31;12.48;;;8.25;;
70592;SDS011;58294;42.988;20.338;2023-07-20T01:47:57;11.63;;;7.90;;
70592;SDS011;58294;42.988;20.338;2023-07-20T01:50:23;14.45;;;8.38;;
70592;SDS011;58294;42.988;20.338;2023-07-20T01:52:48;14.95;;;8.75;;
70592;SDS011;58294;42.988;20.338;2023-07-20T01:55:14;11.63;;;8.43;;
70592;SDS011;58294;42.988;20.338;2023-07-20T01:57:40;11.57;;;7.28;;
70592;SDS011;58294;42.988;20.338;2023-07-20T02:00:06;13.52;;;7.93;;
70592;SDS011;58294;42.988;20.338;2023-07-20T02:02:34;11.13;;;8.05;;
70592;SDS011;58294;42.988;20.338;2023-07-20T02:05:00;13.10;;;9.07;;
70592;SDS011;58294;42.988;20.338;2023-07-20T02:07:26;30.42;;;20.35;;
70592;SDS011;58294;42.988;20.338;2023-07-20T02:09:52;29.25;;;20.33;;
70592;SDS011;58294;42.988;20.338;2023-07-20T02:12:18;27.73;;;17.17;;
70592;SDS011;58294;42.988;20.338;2023-07-20T02:14:44;34.25;;;22.25;;
70592;SDS011;58294;42.988;20.338;2023-07-20T02:17:10;32.42;;;21.00;;
70592;SDS011;58294;42.988;20.338;2023-07-20T02:19:36;30.42;;;18.75;;
70592;SDS011;58294;42.988;20.338;2023-07-20T02:22:02;37.00;;;20.83;;
70592;SDS011;58294;42.988;20.338;2023-07-20T02:24:28;40.53;;;20.83;;
70592;SDS011;58294;42.988;20.338;2023-07-20T02:26:55;44.88;;;25.45;;
70592;SDS011;58294;42.988;20.338;2023-07-20T02:29:21;41.78;;;21.00;;
70592;SDS011;58294;42.988;20.338;2023-07-20T02:31:47;27.38;;;16.00;;
70592;SDS011;58294;42.988;20.338;2023-07-20T02:34:13;22.25;;;12.63;;
70592;SDS011;58294;42.988;20.338;2023-07-20T02:36:38;33.47;;;17.77;;
70592;SDS011;58294;42.988;20.338;2023-07-20T02:39:04;22.13;;;12.55;;
70592;SDS011;58294;42.988;20.338;2023-07-20T02:41:32;13.43;;;9.10;;
70592;SDS011;58294;42.988;20.338;2023-07-20T02:43:59;20.35;;;12.95;;
70592;SDS011;58294;42.988;20.338;2023-07-20T02:46:25;21.88;;;13.65;;
70592;SDS011;58294;42.988;20.338;2023-07-20T02:48:51;28.02;;;15.85;;
70592;SDS011;58294;42.988;20.338;2023-07-20T02:51:17;34.35;;;15.10;;
70592;SDS011;58294;42.988;20.338;2023-07-20T02:53:43;20.58;;;11.82;;
70592;SDS011;58294;42.988;20.338;2023-07-20T02:56:09;22.60;;;12.10;;
70592;SDS011;58294;42.988;20.338;2023-07-20T02:58:34;26.67;;;14.63;;
70592;SDS011;58294;42.988;20.338;2023-07-20T03:01:03;26.40;;;13.07;;
70592;SDS011;58294;42.988;20.338;2023-07-20T03:03:29;17.30;;;10.70;;
70592;SDS011;58294;42.988;20.338;2023-07-20T03:05:55;14.23;;;9.18;;
70592;SDS011;58294;42.988;20.338;2023-07-20T03:08:24;10.60;;;8.52;;
70592;SDS011;58294;42.988;20.338;2023-07-20T03:10:50;33.78;;;16.33;;
70592;SDS011;58294;42.988;20.338;2023-07-20T03:13:15;24.20;;;13.63;;
70592;SDS011;58294;42.988;20.338;2023-07-20T03:15:42;14.80;;;10.38;;
70592;SDS011;58294;42.988;20.338;2023-07-20T03:18:07;12.27;;;9.68;;
70592;SDS011;58294;42.988;20.338;2023-07-20T03:20:34;12.65;;;8.82;;
70592;SDS011;58294;42.988;20.338;2023-07-20T03:23:00;18.20;;;8.77;;
70592;SDS011;58294;42.988;20.338;2023-07-20T03:25:26;12.18;;;8.80;;
70592;SDS011;58294;42.988;20.338;2023-07-20T03:27:52;14.63;;;9.57;;
70592;SDS011;58294;42.988;20.338;2023-07-20T03:30:18;14.80;;;10.75;;
70592;SDS011;58294;42.988;20.338;2023-07-20T03:32:44;14.45;;;9.43;;
70592;SDS011;58294;42.988;20.338;2023-07-20T03:35:10;15.02;;;10.25;;
70592;SDS011;58294;42.988;20.338;2023-07-20T03:37:36;18.17;;;9.68;;
70592;SDS011;58294;42.988;20.338;2023-07-20T03:40:03;13.70;;;9.68;;
70592;SDS011;58294;42.988;20.338;2023-07-20T03:42:30;18.67;;;10.18;;
70592;SDS011;58294;42.988;20.338;2023-07-20T03:44:55;14.90;;;9.07;;
70592;SDS011;58294;42.988;20.338;2023-07-20T03:47:21;13.85;;;8.55;;
70592;SDS011;58294;42.988;20.338;2023-07-20T03:49:47;23.05;;;12.20;;
70592;SDS011;58294;42.988;20.338;2023-07-20T03:52:13;19.67;;;10.57;;
70592;SDS011;58294;42.988;20.338;2023-07-20T03:54:39;19.00;;;10.15;;
70592;SDS011;58294;42.988;20.338;2023-07-20T03:57:04;19.23;;;10.73;;
70592;SDS011;58294;42.988;20.338;2023-07-20T03:59:30;12.73;;;8.82;;
70592;SDS011;58294;42.988;20.338;2023-07-20T04:01:56;15.45;;;9.57;;
70592;SDS011;58294;42.988;20.338;2023-07-20T04:04:22;13.73;;;8.95;;
70592;SDS011;58294;42.988;20.338;2023-07-20T04:06:48;15.30;;;9.05;;
70592;SDS011;58294;42.988;20.338;2023-07-20T04:09:14;12.32;;;7.53;;
70592;SDS011;58294;42.988;20.338;2023-07-20T04:11:39;11.75;;;9.35;;
70592;SDS011;58294;42.988;20.338;2023-07-20T04:14:05;10.80;;;7.97;;
70592;SDS011;58294;42.988;20.338;2023-07-20T04:16:31;13.60;;;8.20;;
70592;SDS011;58294;42.988;20.338;2023-07-20T04:18:58;17.02;;;10.27;;
70592;SDS011;58294;42.988;20.338;2023-07-20T04:21:26;21.88;;;11.52;;
70592;SDS011;58294;42.988;20.338;2023-07-20T04:23:52;23.27;;;10.43;;
70592;SDS011;58294;42.988;20.338;2023-07-20T04:26:18;13.35;;;10.13;;
70592;SDS011;58294;42.988;20.338;2023-07-20T04:28:44;27.20;;;11.55;;
70592;SDS011;58294;42.988;20.338;2023-07-20T04:31:10;20.80;;;11.27;;
70592;SDS011;58294;42.988;20.338;2023-07-20T04:33:37;21.40;;;11.73;;
70592;SDS011;58294;42.988;20.338;2023-07-20T04:36:03;21.17;;;11.85;;
70592;SDS011;58294;42.988;20.338;2023-07-20T04:38:29;23.23;;;12.63;;
70592;SDS011;58294;42.988;20.338;2023-07-20T04:40:55;19.85;;;12.73;;
70592;SDS011;58294;42.988;20.338;2023-07-20T04:43:21;18.67;;;11.30;;
70592;SDS011;58294;42.988;20.338;2023-07-20T04:45:47;20.10;;;12.80;;
70592;SDS011;58294;42.988;20.338;2023-07-20T04:48:13;15.82;;;10.05;;
70592;SDS011;58294;42.988;20.338;2023-07-20T04:50:40;16.13;;;9.75;;
70592;SDS011;58294;42.988;20.338;2023-07-20T04:53:08;16.38;;;10.00;;
70592;SDS011;58294;42.988;20.338;2023-07-20T04:55:35;19.50;;;11.52;;
70592;SDS011;58294;42.988;20.338;2023-07-20T04:58:02;14.60;;;9.13;;
70592;SDS011;58294;42.988;20.338;2023-07-20T05:00:29;16.30;;;13.38;;
70592;SDS011;58294;42.988;20.338;2023-07-20T05:02:55;12.45;;;9.07;;
70592;SDS011;58294;42.988;20.338;2023-07-20T05:05:21;13.18;;;9.98;;
70592;SDS011;58294;42.988;20.338;2023-07-20T05:07:47;15.13;;;8.85;;
70592;SDS011;58294;42.988;20.338;2023-07-20T05:10:13;18.88;;;9.52;;
70592;SDS011;58294;42.988;20.338;2023-07-20T05:12:39;11.07;;;7.85;;
70592;SDS011;58294;42.988;20.338;2023-07-20T05:15:05;14.95;;;8.30;;
70592;SDS011;58294;42.988;20.338;2023-07-20T05:17:31;15.57;;;7.20;;
70592;SDS011;58294;42.988;20.338;2023-07-20T05:19:57;46.10;;;11.55;;
70592;SDS011;58294;42.988;20.338;2023-07-20T05:22:22;10.00;;;5.70;;
70592;SDS011;58294;42.988;20.338;2023-07-20T05:24:49;11.80;;;5.45;;
70592;SDS011;58294;42.988;20.338;2023-07-20T05:27:15;9.27;;;5.45;;
70592;SDS011;58294;42.988;20.338;2023-07-20T05:29:45;10.52;;;5.97;;
70592;SDS011;58294;42.988;20.338;2023-07-20T05:32:11;20.42;;;8.15;;
70592;SDS011;58294;42.988;20.338;2023-07-20T05:34:38;11.27;;;6.28;;
70592;SDS011;58294;42.988;20.338;2023-07-20T05:37:09;11.40;;;6.38;;
70592;SDS011;58294;42.988;20.338;2023-07-20T05:39:35;16.23;;;6.78;;
70592;SDS011;58294;42.988;20.338;2023-07-20T05:42:01;14.15;;;7.38;;
70592;SDS011;58294;42.988;20.338;2023-07-20T05:44:27;8.90;;;7.03;;
70592;SDS011;58294;42.988;20.338;2023-07-20T05:46:53;10.18;;;7.32;;
70592;SDS011;58294;42.988;20.338;2023-07-20T05:49:19;14.65;;;6.65;;
70592;SDS011;58294;42.988;20.338;2023-07-20T05:51:44;15.32;;;7.55;;
70592;SDS011;58294;42.988;20.338;2023-07-20T05:54:11;11.05;;;7.40;;
70592;SDS011;58294;42.988;20.338;2023-07-20T05:56:37;8.88;;;6.20;;
70592;SDS011;58294;42.988;20.338;2023-07-20T05:59:03;14.52;;;6.97;;
70592;SDS011;58294;42.988;20.338;2023-07-20T06:01:29;9.85;;;7.05;;
70592;SDS011;58294;42.988;20.338;2023-07-20T06:03:54;11.07;;;7.45;;
70592;SDS011;58294;42.988;20.338;2023-07-20T06:06:20;11.23;;;8.30;;
70592;SDS011;58294;42.988;20.338;2023-07-20T06:08:46;6.72;;;5.82;;
70592;SDS011;58294;42.988;20.338;2023-07-20T06:11:12;6.70;;;5.75;;
70592;SDS011;58294;42.988;20.338;2023-07-20T06:13:38;9.45;;;7.60;;
70592;SDS011;58294;42.988;20.338;2023-07-20T06:16:04;10.43;;;6.53;;
70592;SDS011;58294;42.988;20.338;2023-07-20T06:18:30;9.13;;;6.93;;
70592;SDS011;58294;42.988;20.338;2023-07-20T06:20:56;7.40;;;4.68;;
70592;SDS011;58294;42.988;20.338;2023-07-20T06:23:21;8.60;;;5.55;;
70592;SDS011;58294;42.988;20.338;2023-07-20T06:25:48;9.13;;;5.90;;
70592;SDS011;58294;42.988;20.338;2023-07-20T06:28:14;6.07;;;5.07;;
70592;SDS011;58294;42.988;20.338;2023-07-20T06:30:40;8.27;;;5.15;;
70592;SDS011;58294;42.988;20.338;2023-07-20T06:33:06;8.38;;;4.85;;
70592;SDS011;58294;42.988;20.338;2023-07-20T06:35:32;9.13;;;5.50;;
70592;SDS011;58294;42.988;20.338;2023-07-20T06:37:59;8.57;;;5.38;;
70592;SDS011;58294;42.988;20.338;2023-07-20T06:40:25;10.07;;;5.45;;
70592;SDS011;58294;42.988;20.338;2023-07-20T06:42:51;13.48;;;6.45;;
70592;SDS011;58294;42.988;20.338;2023-07-20T06:45:17;9.93;;;5.82;;
70592;SDS011;58294;42.988;20.338;2023-07-20T06:47:43;11.82;;;6.85;;
70592;SDS011;58294;42.988;20.338;2023-07-20T06:50:09;6.00;;;5.25;;
70592;SDS011;58294;42.988;20.338;2023-07-20T06:52:36;14.38;;;8.18;;
70592;SDS011;58294;42.988;20.338;2023-07-20T06:55:02;8.55;;;6.32;;
70592;SDS011;58294;42.988;20.338;2023-07-20T06:57:28;19.42;;;9.02;;
70592;SDS011;58294;42.988;20.338;2023-07-20T06:59:54;8.98;;;5.47;;
70592;SDS011;58294;42.988;20.338;2023-07-20T07:02:20;12.70;;;6.30;;
70592;SDS011;58294;42.988;20.338;2023-07-20T07:04:46;10.48;;;6.25;;
70592;SDS011;58294;42.988;20.338;2023-07-20T07:07:14;9.43;;;6.40;;
70592;SDS011;58294;42.988;20.338;2023-07-20T07:09:40;12.30;;;6.07;;
70592;SDS011;58294;42.988;20.338;2023-07-20T07:12:07;10.48;;;6.00;;
70592;SDS011;58294;42.988;20.338;2023-07-20T07:14:33;10.57;;;6.10;;
70592;SDS011;58294;42.988;20.338;2023-07-20T07:16:59;8.65;;;5.78;;
70592;SDS011;58294;42.988;20.338;2023-07-20T07:19:25;8.90;;;6.45;;
70592;SDS011;58294;42.988;20.338;2023-07-20T07:21:51;8.93;;;6.45;;
70592;SDS011;58294;42.988;20.338;2023-07-20T07:24:17;10.10;;;6.53;;
70592;SDS011;58294;42.988;20.338;2023-07-20T07:26:43;8.25;;;6.13;;
70592;SDS011;58294;42.988;20.338;2023-07-20T07:29:09;12.35;;;6.78;;
70592;SDS011;58294;42.988;20.338;2023-07-20T07:31:35;8.82;;;6.85;;
70592;SDS011;58294;42.988;20.338;2023-07-20T07:34:01;9.13;;;6.85;;
70592;SDS011;58294;42.988;20.338;2023-07-20T07:36:28;7.47;;;6.07;;
70592;SDS011;58294;42.988;20.338;2023-07-20T07:38:54;8.35;;;6.68;;
70592;SDS011;58294;42.988;20.338;2023-07-20T07:41:19;9.77;;;6.85;;
70592;SDS011;58294;42.988;20.338;2023-07-20T07:43:46;12.52;;;6.57;;
70592;SDS011;58294;42.988;20.338;2023-07-20T07:46:12;7.43;;;6.55;;
70592;SDS011;58294;42.988;20.338;2023-07-20T07:48:39;8.88;;;6.80;;
70592;SDS011;58294;42.988;20.338;2023-07-20T07:51:06;10.68;;;7.22;;
70592;SDS011;58294;42.988;20.338;2023-07-20T07:53:32;10.30;;;6.80;;
70592;SDS011;58294;42.988;20.338;2023-07-20T07:55:57;14.30;;;7.00;;
70592;SDS011;58294;42.988;20.338;2023-07-20T07:58:23;10.25;;;6.28;;
70592;SDS011;58294;42.988;20.338;2023-07-20T08:00:50;8.88;;;5.28;;
70592;SDS011;58294;42.988;20.338;2023-07-20T08:03:15;6.93;;;5.28;;
70592;SDS011;58294;42.988;20.338;2023-07-20T08:05:41;6.93;;;4.78;;
70592;SDS011;58294;42.988;20.338;2023-07-20T08:08:07;7.80;;;5.28;;
70592;SDS011;58294;42.988;20.338;2023-07-20T08:10:34;8.25;;;5.00;;
70592;SDS011;58294;42.988;20.338;2023-07-20T08:13:00;9.38;;;5.85;;
70592;SDS011;58294;42.988;20.338;2023-07-20T08:15:26;6.40;;;5.25;;
70592;SDS011;58294;42.988;20.338;2023-07-20T08:17:51;7.18;;;5.32;;
70592;SDS011;58294;42.988;20.338;2023-07-20T08:20:17;7.38;;;5.28;;
70592;SDS011;58294;42.988;20.338;2023-07-20T08:22:43;7.22;;;5.07;;
70592;SDS011;58294;42.988;20.338;2023-07-20T08:25:09;8.85;;;5.63;;
70592;SDS011;58294;42.988;20.338;2023-07-20T08:27:35;7.32;;;5.53;;
70592;SDS011;58294;42.988;20.338;2023-07-20T08:30:02;6.45;;;5.43;;
70592;SDS011;58294;42.988;20.338;2023-07-20T08:32:29;10.35;;;5.22;;
70592;SDS011;58294;42.988;20.338;2023-07-20T08:34:55;10.65;;;4.57;;
70592;SDS011;58294;42.988;20.338;2023-07-20T08:37:21;7.13;;;4.70;;
70592;SDS011;58294;42.988;20.338;2023-07-20T08:39:47;9.50;;;5.25;;
70592;SDS011;58294;42.988;20.338;2023-07-20T08:42:13;7.22;;;5.05;;
70592;SDS011;58294;42.988;20.338;2023-07-20T08:44:40;6.75;;;4.57;;
70592;SDS011;58294;42.988;20.338;2023-07-20T08:47:08;8.52;;;5.93;;
70592;SDS011;58294;42.988;20.338;2023-07-20T08:49:35;8.93;;;5.28;;
70592;SDS011;58294;42.988;20.338;2023-07-20T08:52:02;5.28;;;4.45;;
70592;SDS011;58294;42.988;20.338;2023-07-20T08:54:32;10.30;;;5.45;;
70592;SDS011;58294;42.988;20.338;2023-07-20T08:57:00;7.95;;;4.75;;
70592;SDS011;58294;42.988;20.338;2023-07-20T08:59:28;6.40;;;4.45;;
70592;SDS011;58294;42.988;20.338;2023-07-20T09:01:56;7.43;;;4.95;;
70592;SDS011;58294;42.988;20.338;2023-07-20T09:04:23;11.25;;;5.80;;
70592;SDS011;58294;42.988;20.338;2023-07-20T09:06:49;7.43;;;4.38;;
70592;SDS011;58294;42.988;20.338;2023-07-20T09:09:15;7.18;;;4.82;;
70592;SDS011;58294;42.988;20.338;2023-07-20T09:11:41;9.88;;;4.72;;
70592;SDS011;58294;42.988;20.338;2023-07-20T09:14:08;10.45;;;5.82;;
70592;SDS011;58294;42.988;20.338;2023-07-20T09:16:48;7.65;;;4.43;;
70592;SDS011;58294;42.988;20.338;2023-07-20T09:19:15;6.88;;;4.05;;
70592;SDS011;58294;42.988;20.338;2023-07-20T09:21:43;7.32;;;4.15;;
70592;SDS011;58294;42.988;20.338;2023-07-20T09:24:11;6.93;;;4.03;;
70592;SDS011;58294;42.988;20.338;2023-07-20T09:26:41;5.95;;;4.05;;
70592;SDS011;58294;42.988;20.338;2023-07-20T09:29:08;6.07;;;4.20;;
70592;SDS011;58294;42.988;20.338;2023-07-20T09:31:35;8.25;;;4.53;;
70592;SDS011;58294;42.988;20.338;2023-07-20T09:34:01;7.53;;;4.25;;
70592;SDS011;58294;42.988;20.338;2023-07-20T09:36:28;8.50;;;4.22;;
70592;SDS011;58294;42.988;20.338;2023-07-20T09:38:54;6.03;;;4.22;;
70592;SDS011;58294;42.988;20.338;2023-07-20T09:41:21;7.25;;;4.25;;
70592;SDS011;58294;42.988;20.338;2023-07-20T09:43:46;5.03;;;3.97;;
70592;SDS011;58294;42.988;20.338;2023-07-20T09:46:13;5.15;;;3.90;;
70592;SDS011;58294;42.988;20.338;2023-07-20T09:48:39;9.82;;;4.70;;
70592;SDS011;58294;42.988;20.338;2023-07-20T09:51:05;10.30;;;4.70;;
70592;SDS011;58294;42.988;20.338;2023-07-20T09:53:33;7.45;;;4.78;;
70592;SDS011;58294;42.988;20.338;2023-07-20T09:56:00;7.25;;;4.80;;
70592;SDS011;58294;42.988;20.338;2023-07-20T09:58:26;8.73;;;4.80;;
70592;SDS011;58294;42.988;20.338;2023-07-20T10:00:53;9.93;;;5.68;;
70592;SDS011;58294;42.988;20.338;2023-07-20T10:03:22;7.88;;;5.72;;
70592;SDS011;58294;42.988;20.338;2023-07-20T10:05:56;6.57;;;4.43;;
70592;SDS011;58294;42.988;20.338;2023-07-20T10:08:25;8.85;;;4.93;;
70592;SDS011;58294;42.988;20.338;2023-07-20T10:10:52;10.73;;;4.82;;
70592;SDS011;58294;42.988;20.338;2023-07-20T10:13:18;6.70;;;4.72;;
70592;SDS011;58294;42.988;20.338;2023-07-20T10:15:50;7.13;;;4.05;;
70592;SDS011;58294;42.988;20.338;2023-07-20T10:18:25;10.45;;;5.00;;
70592;SDS011;58294;42.988;20.338;2023-07-20T10:20:54;6.60;;;3.85;;
70592;SDS011;58294;42.988;20.338;2023-07-20T10:23:21;13.98;;;5.05;;
70592;SDS011;58294;42.988;20.338;2023-07-20T10:25:49;7.45;;;4.43;;
70592;SDS011;58294;42.988;20.338;2023-07-20T10:28:15;8.25;;;5.22;;
70592;SDS011;58294;42.988;20.338;2023-07-20T10:30:41;7.43;;;4.55;;
70592;SDS011;58294;42.988;20.338;2023-07-20T10:33:08;7.57;;;5.07;;
70592;SDS011;58294;42.988;20.338;2023-07-20T10:38:40;8.07;;;5.40;;
70592;SDS011;58294;42.988;20.338;2023-07-20T10:41:39;11.13;;;5.25;;
70592;SDS011;58294;42.988;20.338;2023-07-20T10:44:00;13.60;;;5.50;;
70592;SDS011;58294;42.988;20.338;2023-07-20T10:47:00;12.93;;;5.65;;
70592;SDS011;58294;42.988;20.338;2023-07-20T10:49:19;10.55;;;5.00;;
70592;SDS011;58294;42.988;20.338;2023-07-20T10:51:56;15.70;;;5.70;;
70592;SDS011;58294;42.988;20.338;2023-07-20T10:56:49;9.32;;;5.70;;
70592;SDS011;58294;42.988;20.338;2023-07-20T10:59:19;10.52;;;5.70;;
70592;SDS011;58294;42.988;20.338;2023-07-20T11:01:48;10.20;;;4.70;;
70592;SDS011;58294;42.988;20.338;2023-07-20T11:04:15;8.00;;;4.15;;
70592;SDS011;58294;42.988;20.338;2023-07-20T11:06:44;7.88;;;4.63;;
70592;SDS011;58294;42.988;20.338;2023-07-20T11:09:14;8.57;;;4.85;;
70592;SDS011;58294;42.988;20.338;2023-07-20T11:11:44;8.73;;;5.05;;
70592;SDS011;58294;42.988;20.338;2023-07-20T11:14:11;18.10;;;6.53;;
70592;SDS011;58294;42.988;20.338;2023-07-20T11:16:47;8.75;;;4.45;;
70592;SDS011;58294;42.988;20.338;2023-07-20T11:19:21;6.45;;;5.13;;
70592;SDS011;58294;42.988;20.338;2023-07-20T11:21:51;12.15;;;5.93;;
70592;SDS011;58294;42.988;20.338;2023-07-20T11:24:18;7.40;;;3.95;;
70592;SDS011;58294;42.988;20.338;2023-07-20T11:26:49;10.70;;;5.65;;
70592;SDS011;58294;42.988;20.338;2023-07-20T11:29:16;9.30;;;4.40;;
70592;SDS011;58294;42.988;20.338;2023-07-20T11:31:43;7.68;;;4.85;;
70592;SDS011;58294;42.988;20.338;2023-07-20T11:34:16;6.60;;;4.10;;
70592;SDS011;58294;42.988;20.338;2023-07-20T11:36:44;10.07;;;5.28;;
70592;SDS011;58294;42.988;20.338;2023-07-20T11:39:13;8.25;;;4.90;;
70592;SDS011;58294;42.988;20.338;2023-07-20T11:41:49;10.55;;;5.53;;
70592;SDS011;58294;42.988;20.338;2023-07-20T11:44:21;9.23;;;5.05;;
70592;SDS011;58294;42.988;20.338;2023-07-20T11:47:04;11.95;;;5.72;;
70592;SDS011;58294;42.988;20.338;2023-07-20T11:49:34;9.60;;;5.40;;
70592;SDS011;58294;42.988;20.338;2023-07-20T11:52:02;11.23;;;5.20;;
70592;SDS011;58294;42.988;20.338;2023-07-20T11:54:32;9.57;;;5.85;;
70592;SDS011;58294;42.988;20.338;2023-07-20T11:57:03;10.50;;;6.13;;
70592;SDS011;58294;42.988;20.338;2023-07-20T11:59:30;11.55;;;7.07;;
70592;SDS011;58294;42.988;20.338;2023-07-20T12:01:56;10.82;;;5.70;;
70592;SDS011;58294;42.988;20.338;2023-07-20T12:04:23;8.80;;;6.35;;
70592;SDS011;58294;42.988;20.338;2023-07-20T12:06:49;17.55;;;8.18;;
70592;SDS011;58294;42.988;20.338;2023-07-20T12:09:16;9.38;;;5.32;;
70592;SDS011;58294;42.988;20.338;2023-07-20T12:11:43;8.18;;;5.53;;
70592;SDS011;58294;42.988;20.338;2023-07-20T12:14:10;16.30;;;6.35;;
70592;SDS011;58294;42.988;20.338;2023-07-20T12:16:36;9.40;;;5.35;;
70592;SDS011;58294;42.988;20.338;2023-07-20T12:19:07;10.18;;;6.50;;
70592;SDS011;58294;42.988;20.338;2023-07-20T12:21:37;11.80;;;6.28;;
70592;SDS011;58294;42.988;20.338;2023-07-20T12:24:05;9.52;;;5.38;;
70592;SDS011;58294;42.988;20.338;2023-07-20T12:26:32;6.75;;;5.63;;
70592;SDS011;58294;42.988;20.338;2023-07-20T12:28:58;12.10;;;5.50;;
70592;SDS011;58294;42.988;20.338;2023-07-20T12:31:25;15.05;;;5.93;;
70592;SDS011;58294;42.988;20.338;2023-07-20T12:33:52;10.05;;;4.90;;
70592;SDS011;58294;42.988;20.338;2023-07-20T12:36:20;8.80;;;5.15;;
70592;SDS011;58294;42.988;20.338;2023-07-20T12:38:46;11.85;;;5.10;;
70592;SDS011;58294;42.988;20.338;2023-07-20T12:41:12;9.00;;;5.55;;
70592;SDS011;58294;42.988;20.338;2023-07-20T12:43:39;9.75;;;5.05;;
70592;SDS011;58294;42.988;20.338;2023-07-20T12:46:06;9.68;;;5.40;;
70592;SDS011;58294;42.988;20.338;2023-07-20T12:48:31;6.60;;;5.00;;
70592;SDS011;58294;42.988;20.338;2023-07-20T12:50:58;8.60;;;4.70;;
70592;SDS011;58294;42.988;20.338;2023-07-20T12:53:24;6.80;;;4.50;;
70592;SDS011;58294;42.988;20.338;2023-07-20T12:55:49;10.32;;;4.88;;
70592;SDS011;58294;42.988;20.338;2023-07-20T12:58:16;10.93;;;5.25;;
70592;SDS011;58294;42.988;20.338;2023-07-20T13:00:42;6.65;;;4.72;;
70592;SDS011;58294;42.988;20.338;2023-07-20T13:03:09;7.50;;;5.00;;
70592;SDS011;58294;42.988;20.338;2023-07-20T13:05:35;9.52;;;4.70;;
70592;SDS011;58294;42.988;20.338;2023-07-20T13:08:01;8.32;;;5.30;;
70592;SDS011;58294;42.988;20.338;2023-07-20T13:10:27;10.60;;;5.05;;
70592;SDS011;58294;42.988;20.338;2023-07-20T13:12:54;13.45;;;5.35;;
70592;SDS011;58294;42.988;20.338;2023-07-20T13:15:20;8.07;;;4.95;;
70592;SDS011;58294;42.988;20.338;2023-07-20T13:17:46;7.05;;;4.55;;
70592;SDS011;58294;42.988;20.338;2023-07-20T13:20:12;14.55;;;5.88;;
70592;SDS011;58294;42.988;20.338;2023-07-20T13:22:39;7.95;;;4.88;;
70592;SDS011;58294;42.988;20.338;2023-07-20T13:25:05;7.30;;;4.65;;
70592;SDS011;58294;42.988;20.338;2023-07-20T13:27:32;9.43;;;5.03;;
70592;SDS011;58294;42.988;20.338;2023-07-20T13:29:58;9.70;;;5.03;;
70592;SDS011;58294;42.988;20.338;2023-07-20T13:32:25;19.63;;;13.35;;
70592;SDS011;58294;42.988;20.338;2023-07-20T13:34:52;7.93;;;5.50;;
70592;SDS011;58294;42.988;20.338;2023-07-20T13:37:18;7.32;;;4.82;;
70592;SDS011;58294;42.988;20.338;2023-07-20T13:39:44;8.13;;;4.82;;
70592;SDS011;58294;42.988;20.338;2023-07-20T13:42:11;7.85;;;5.25;;
70592;SDS011;58294;42.988;20.338;2023-07-20T13:44:37;6.38;;;4.53;;
70592;SDS011;58294;42.988;20.338;2023-07-20T13:47:03;8.73;;;4.50;;
70592;SDS011;58294;42.988;20.338;2023-07-20T13:49:32;4.95;;;4.40;;
70592;SDS011;58294;42.988;20.338;2023-07-20T13:51:59;8.40;;;4.95;;
70592;SDS011;58294;42.988;20.338;2023-07-20T13:54:25;9.20;;;4.78;;
70592;SDS011;58294;42.988;20.338;2023-07-20T13:56:51;6.88;;;4.15;;
70592;SDS011;58294;42.988;20.338;2023-07-20T13:59:20;10.10;;;5.13;;
70592;SDS011;58294;42.988;20.338;2023-07-20T14:01:45;8.63;;;4.55;;
70592;SDS011;58294;42.988;20.338;2023-07-20T14:04:12;6.60;;;4.22;;
70592;SDS011;58294;42.988;20.338;2023-07-20T14:06:38;12.18;;;5.65;;
70592;SDS011;58294;42.988;20.338;2023-07-20T14:09:04;8.40;;;4.82;;
70592;SDS011;58294;42.988;20.338;2023-07-20T14:11:30;10.65;;;4.88;;
70592;SDS011;58294;42.988;20.338;2023-07-20T14:13:55;13.85;;;6.22;;
70592;SDS011;58294;42.988;20.338;2023-07-20T14:16:23;12.25;;;5.15;;
70592;SDS011;58294;42.988;20.338;2023-07-20T14:18:49;11.77;;;4.53;;
70592;SDS011;58294;42.988;20.338;2023-07-20T14:21:16;11.00;;;5.38;;
70592;SDS011;58294;42.988;20.338;2023-07-20T14:23:46;9.85;;;5.63;;
70592;SDS011;58294;42.988;20.338;2023-07-20T14:26:14;9.27;;;4.82;;
70592;SDS011;58294;42.988;20.338;2023-07-20T14:28:40;10.52;;;4.97;;
70592;SDS011;58294;42.988;20.338;2023-07-20T14:31:06;9.32;;;5.05;;
70592;SDS011;58294;42.988;20.338;2023-07-20T14:33:33;16.00;;;4.85;;
70592;SDS011;58294;42.988;20.338;2023-07-20T14:35:59;10.48;;;5.50;;
70592;SDS011;58294;42.988;20.338;2023-07-20T14:38:27;10.05;;;4.75;;
70592;SDS011;58294;42.988;20.338;2023-07-20T14:40:56;10.65;;;4.60;;
70592;SDS011;58294;42.988;20.338;2023-07-20T14:43:22;7.90;;;4.47;;